KSAN/SAN METAR and TAF weather

Enter ICAO airport designator
Station Type Date Time Source
KSAN METAR 2020/10/20 17:51 UTC NOAA

KSAN 201751Z 20007KT 9SM FEW012 FEW020 22/15 A2991 RMK AO2 SLP127 T02220150 10228 20206 58002


Station Type Date Time Source
KSAN Decoded METAR 2020/10/20 17:51 UTC NOAA

SAN DIEGO INTERNATIONAL \LINDBERGH FLD, CA, United States (KSAN) 32-44N 117-11W 12M
Oct 20, 2020 - 01:51 PM EDT / 2020.10.20 1751 UTC
Wind: from the SSW (200 degrees) at 8 MPH (7 KT):0
Visibility: 9 mile(s):0
Sky conditions: mostly clear
Temperature: 72.0 F (22.2 C)
Dew Point: 59.0 F (15.0 C)
Relative Humidity: 63%
Pressure (altimeter): 29.91 in. Hg (1012 hPa)
Pressure tendency: 0.01 inches (0.2 hPa) lower than three hours ago
ob: KSAN 201751Z 20007KT 9SM FEW012 FEW020 22/15 A2991 RMK AO2 SLP127 T02220150 10228 20206 58002
cycle: 18

Station Type Date Time Source
KSAN TAF 2020/10/20 18:30 UTC NOAA

TAF KSAN 201728Z 2018/2124 VRB05KT P6SM FEW015
FM202000 29008KT P6SM SKC
FM210300 VRB04KT P6SM BKN008
FM211000 VRB03KT P6SM OVC015
TEMPO 2120/2124 27008KT SCT016

Example: see airport list